createdAt,value
2023-02-24T00:01:25.006Z,8.60
2023-02-24T00:02:59.061Z,8.60
2023-02-24T00:04:33.778Z,8.50
2023-02-24T00:06:12.029Z,8.50
2023-02-24T00:07:45.312Z,8.50
2023-02-24T00:09:20.417Z,8.50
2023-02-24T00:10:52.852Z,8.50
2023-02-24T00:12:27.411Z,8.50
2023-02-24T00:13:59.954Z,8.50
2023-02-24T00:15:33.087Z,8.30
2023-02-24T00:17:08.071Z,8.50
2023-02-24T00:18:41.332Z,8.40
2023-02-24T00:20:14.486Z,8.40
2023-02-24T00:21:48.192Z,8.40
2023-02-24T00:23:20.297Z,8.40
2023-02-24T00:24:55.087Z,8.40
2023-02-24T00:26:30.185Z,8.40
2023-02-24T00:28:04.723Z,8.20
2023-02-24T00:29:37.752Z,8.30
2023-02-24T00:31:14.291Z,8.40
2023-02-24T00:32:47.549Z,8.40
2023-02-24T00:34:20.732Z,8.40
2023-02-24T00:35:55.340Z,8.40
2023-02-24T00:37:29.721Z,8.40
2023-02-24T00:39:09.215Z,8.40
2023-02-24T00:40:45.324Z,8.40
2023-02-24T00:42:18.804Z,8.40
2023-02-24T00:43:53.249Z,8.40
2023-02-24T00:45:30.389Z,8.40
2023-02-24T00:47:05.202Z,8.30
2023-02-24T00:48:40.604Z,8.30
2023-02-24T00:50:15.078Z,8.30
2023-02-24T00:51:50.014Z,8.40
2023-02-24T00:53:22.840Z,8.30
2023-02-24T00:54:56.048Z,8.40
2023-02-24T00:56:30.812Z,8.30
2023-02-24T00:58:07.280Z,8.30
2023-02-24T00:59:42.493Z,8.30
2023-02-24T01:01:17.299Z,8.30
2023-02-24T01:02:49.680Z,8.40
2023-02-24T01:04:23.639Z,8.30
2023-02-24T01:05:55.822Z,8.30
2023-02-24T01:07:29.818Z,8.30
2023-02-24T01:09:02.019Z,8.40
2023-02-24T01:10:36.842Z,8.40
2023-02-24T01:12:33.726Z,8.30
2023-02-24T01:14:09.423Z,8.20
2023-02-24T01:15:43.853Z,8.30
2023-02-24T01:17:18.244Z,8.30
2023-02-24T01:18:51.966Z,8.20
2023-02-24T01:20:25.082Z,8.30
2023-02-24T01:21:57.966Z,8.20
2023-02-24T01:23:31.079Z,8.20
2023-02-24T01:25:05.645Z,8.20
2023-02-24T01:26:39.016Z,8.10
2023-02-24T01:28:13.951Z,8.20
2023-02-24T01:29:46.375Z,8.20
2023-02-24T01:31:21.510Z,8.10
2023-02-24T01:32:58.189Z,8.10
2023-02-24T01:34:30.381Z,8.10
2023-02-24T01:36:10.259Z,8.10
2023-02-24T01:37:45.349Z,8.00
2023-02-24T01:39:18.766Z,8.00
2023-02-24T01:41:00.021Z,8.00
2023-02-24T01:42:32.903Z,8.00
2023-02-24T01:44:09.688Z,8.00
2023-02-24T01:45:42.929Z,8.00
2023-02-24T01:47:20.810Z,8.00
2023-02-24T01:48:59.554Z,8.00
2023-02-24T01:50:36.001Z,8.00
2023-02-24T01:52:11.816Z,8.00
2023-02-24T01:53:45.200Z,8.00
2023-02-24T01:55:23.956Z,8.00
2023-02-24T01:56:58.721Z,7.90
2023-02-24T01:58:32.928Z,8.00
2023-02-24T02:00:12.248Z,7.90
2023-02-24T02:01:53.305Z,7.70
2023-02-24T02:03:33.733Z,7.90
2023-02-24T02:05:09.450Z,7.90
2023-02-24T02:06:42.811Z,7.80
2023-02-24T02:08:18.701Z,7.90
2023-02-24T02:09:54.621Z,7.80
2023-02-24T02:11:27.914Z,7.70
2023-02-24T02:13:01.041Z,7.80
2023-02-24T02:14:36.702Z,7.70
2023-02-24T02:16:35.759Z,7.70
2023-02-24T02:18:15.723Z,7.70
2023-02-24T02:20:34.726Z,7.70
2023-02-24T02:22:23.504Z,7.70
2023-02-24T02:24:01.232Z,7.70
2023-02-24T02:25:47.358Z,7.60
2023-02-24T02:27:50.185Z,7.70
2023-02-24T02:29:46.848Z,7.60
2023-02-24T02:31:50.868Z,7.60
2023-02-24T02:34:03.066Z,7.60
2023-02-24T02:35:42.640Z,7.60
2023-02-24T02:37:25.371Z,7.60
2023-02-24T02:39:06.215Z,7.60
2023-02-24T02:40:44.042Z,7.60
2023-02-24T02:42:27.224Z,7.60
2023-02-24T02:44:08.545Z,7.70
2023-02-24T02:45:47.716Z,7.60
2023-02-24T02:47:27.247Z,7.60
2023-02-24T02:49:03.490Z,7.60
2023-02-24T02:50:43.310Z,7.60
2023-02-24T02:52:22.801Z,7.60
2023-02-24T02:54:03.620Z,7.60
2023-02-24T02:55:41.664Z,7.50
2023-02-24T02:57:20.423Z,7.50
2023-02-24T02:58:57.333Z,7.60
2023-02-24T03:00:37.079Z,7.60
2023-02-24T03:02:15.071Z,7.60
2023-02-24T03:03:53.157Z,7.60
2023-02-24T03:05:31.005Z,7.60
2023-02-24T03:07:07.139Z,7.60
2023-02-24T03:08:44.946Z,7.60
2023-02-24T03:10:22.483Z,7.60
2023-02-24T03:12:02.139Z,7.50
2023-02-24T03:13:42.261Z,7.40
2023-02-24T03:15:17.046Z,7.60
2023-02-24T03:16:51.221Z,7.60
2023-02-24T03:18:30.043Z,7.70
2023-02-24T03:20:14.070Z,7.50
2023-02-24T03:21:51.883Z,7.50
2023-02-24T03:23:32.016Z,7.40
2023-02-24T03:25:06.238Z,7.50
2023-02-24T03:26:49.291Z,7.40
2023-02-24T03:28:29.089Z,7.30
2023-02-24T03:30:09.656Z,7.30
2023-02-24T03:31:47.605Z,7.30
2023-02-24T03:33:25.467Z,7.30
2023-02-24T03:35:04.591Z,7.30
2023-02-24T03:36:38.238Z,7.30
2023-02-24T03:38:14.104Z,7.30
2023-02-24T03:39:51.342Z,7.30
2023-02-24T03:41:31.934Z,7.30
2023-02-24T03:43:09.182Z,7.30
2023-02-24T03:44:41.367Z,7.20
2023-02-24T03:46:16.974Z,7.20
2023-02-24T03:47:54.083Z,7.20
2023-02-24T03:49:27.497Z,7.10
2023-02-24T03:51:00.787Z,6.80
2023-02-24T03:53:01.463Z,7.00
2023-02-24T03:54:53.260Z,6.70
2023-02-24T03:56:33.099Z,6.60
2023-02-24T03:58:18.889Z,6.60
2023-02-24T04:00:25.786Z,6.60
2023-02-24T04:02:07.985Z,6.50
2023-02-24T04:03:59.230Z,6.60
2023-02-24T04:05:48.002Z,6.60
2023-02-24T04:07:34.100Z,6.60
2023-02-24T04:09:13.569Z,6.60
2023-02-24T04:11:05.223Z,6.10
2023-02-24T04:17:43.145Z,6.50
2023-02-24T04:19:20.879Z,6.60
2023-02-24T04:20:59.717Z,6.60
2023-02-24T04:22:33.569Z,6.40
2023-02-24T04:24:11.861Z,6.40
2023-02-24T04:25:49.064Z,6.40
2023-02-24T04:55:51.985Z,6.20
2023-02-24T04:57:25.659Z,6.30
2023-02-24T04:59:00.269Z,6.20
2023-02-24T05:00:40.283Z,6.20
2023-02-24T05:02:17.706Z,6.20
2023-02-24T05:03:52.828Z,6.10
2023-02-24T05:05:27.682Z,6.00
2023-02-24T05:07:00.832Z,6.10
2023-02-24T05:14:51.667Z,6.20
2023-02-24T05:19:48.920Z,6.40
2023-02-24T05:21:36.880Z,6.30
2023-02-24T05:23:11.286Z,6.20
2023-02-24T05:24:47.895Z,6.20
2023-02-24T05:26:24.089Z,6.20
2023-02-24T05:27:57.890Z,6.20
2023-02-24T05:29:34.273Z,6.30
2023-02-24T05:31:11.356Z,6.30
2023-02-24T05:32:44.939Z,6.20
2023-02-24T05:34:18.060Z,6.30
2023-02-24T05:35:52.468Z,6.30
2023-02-24T05:37:25.765Z,6.30
2023-02-24T05:38:58.622Z,6.30
2023-02-24T05:40:32.348Z,6.30
2023-02-24T05:42:06.490Z,6.30
2023-02-24T05:43:39.553Z,6.30
2023-02-24T05:45:13.295Z,6.30
2023-02-24T05:46:49.638Z,6.30
2023-02-24T05:48:24.887Z,6.30
2023-02-24T05:49:59.070Z,6.30
2023-02-24T05:51:35.411Z,6.30
2023-02-24T05:53:09.477Z,6.30
2023-02-24T05:54:45.059Z,6.30
2023-02-24T05:56:19.149Z,6.20
2023-02-24T05:57:53.340Z,6.20
2023-02-24T05:59:32.494Z,6.30
2023-02-24T06:01:16.175Z,6.30
2023-02-24T06:02:50.778Z,6.20
2023-02-24T06:04:39.260Z,6.30
2023-02-24T06:06:12.443Z,6.20
2023-02-24T06:07:47.254Z,6.20
2023-02-24T06:09:23.208Z,6.20
2023-02-24T06:10:58.056Z,6.00
2023-02-24T06:12:34.103Z,5.90
2023-02-24T06:14:08.020Z,5.80
2023-02-24T06:15:41.879Z,5.60
2023-02-24T06:17:16.988Z,5.60
2023-02-24T06:18:51.620Z,5.50
2023-02-24T06:20:26.742Z,5.40
2023-02-24T06:22:01.570Z,5.50
2023-02-24T06:23:35.036Z,5.50
2023-02-24T06:25:11.221Z,5.40
2023-02-24T06:26:44.583Z,5.40
2023-02-24T06:28:19.924Z,5.40
2023-02-24T06:29:55.122Z,5.50
2023-02-24T06:31:28.985Z,5.50
2023-02-24T06:33:02.171Z,5.40
2023-02-24T06:34:37.253Z,5.30
2023-02-24T06:36:10.792Z,5.30
2023-02-24T06:37:43.897Z,5.30
2023-02-24T06:39:17.032Z,5.30
2023-02-24T06:40:52.543Z,5.20
2023-02-24T06:42:25.749Z,5.20
2023-02-24T06:43:58.991Z,5.20
2023-02-24T06:45:32.184Z,5.10
2023-02-24T06:47:07.069Z,5.10
2023-02-24T06:48:40.874Z,4.90
2023-02-24T06:50:15.490Z,4.90
2023-02-24T06:51:48.718Z,4.90
2023-02-24T06:53:22.156Z,4.80
2023-02-24T06:54:55.300Z,4.80
2023-02-24T06:56:30.802Z,4.70
2023-02-24T06:58:05.273Z,4.70
2023-02-24T06:59:38.502Z,4.60
2023-02-24T07:01:13.024Z,4.50
2023-02-24T07:02:46.165Z,4.50
2023-02-24T07:04:20.882Z,4.50
2023-02-24T07:06:10.999Z,4.40
2023-02-24T07:07:46.025Z,4.40
2023-02-24T07:09:21.567Z,4.40
2023-02-24T07:10:55.979Z,4.30
2023-02-24T07:12:29.220Z,4.30
2023-02-24T07:14:05.728Z,4.30
2023-02-24T07:15:38.935Z,4.30
2023-02-24T07:17:14.722Z,4.30
2023-02-24T07:18:48.954Z,4.30
2023-02-24T07:20:25.540Z,4.30
2023-02-24T07:22:03.112Z,4.20
2023-02-24T07:23:36.255Z,4.30
2023-02-24T07:25:30.432Z,4.30
2023-02-24T07:27:06.229Z,4.30
2023-02-24T07:28:40.265Z,4.30
2023-02-24T07:30:15.649Z,4.30
2023-02-24T07:31:48.893Z,4.40
2023-02-24T07:33:23.124Z,4.30
2023-02-24T07:34:56.231Z,4.30
2023-02-24T07:36:30.961Z,4.30
2023-02-24T07:38:05.744Z,4.40
2023-02-24T07:39:40.654Z,4.40
2023-02-24T07:41:18.996Z,4.50
2023-02-24T07:42:55.014Z,4.30
2023-02-24T07:44:29.406Z,4.30
2023-02-24T07:46:11.690Z,4.30
2023-02-24T07:47:45.654Z,4.30
2023-02-24T07:49:20.999Z,4.20
2023-02-24T07:50:54.902Z,4.20
2023-02-24T07:52:28.220Z,4.30
2023-02-24T07:54:03.564Z,4.20
2023-02-24T07:55:37.106Z,4.30
2023-02-24T07:57:13.985Z,4.20
2023-02-24T07:58:50.970Z,4.10
2023-02-24T08:00:28.269Z,4.00
2023-02-24T08:02:07.709Z,3.80
2023-02-24T08:03:41.806Z,3.80
2023-02-24T08:05:15.111Z,3.80
2023-02-24T08:06:55.670Z,3.80
2023-02-24T08:08:28.799Z,3.90
2023-02-24T08:10:14.499Z,3.80
2023-02-24T08:11:52.455Z,3.80
2023-02-24T08:13:25.635Z,3.80
2023-02-24T08:15:00.259Z,3.80
2023-02-24T08:16:39.496Z,3.80
2023-02-24T08:18:13.817Z,3.80
2023-02-24T08:19:49.326Z,3.70
2023-02-24T08:21:23.620Z,3.60
2023-02-24T08:22:57.280Z,3.60
2023-02-24T08:24:30.622Z,3.70
2023-02-24T08:26:12.589Z,3.70
2023-02-24T08:28:06.048Z,3.60
2023-02-24T08:29:57.870Z,3.70
2023-02-24T08:31:31.055Z,3.70
2023-02-24T08:33:04.233Z,3.70
2023-02-24T08:34:37.724Z,3.70
2023-02-24T08:36:12.188Z,3.80
2023-02-24T08:37:48.015Z,3.80
2023-02-24T08:39:22.461Z,3.90
2023-02-24T08:40:58.597Z,3.90
2023-02-24T08:42:34.812Z,3.90
2023-02-24T08:44:10.236Z,3.90
2023-02-24T08:45:45.497Z,4.00
2023-02-24T08:47:21.143Z,4.00
2023-02-24T08:48:56.812Z,4.00
2023-02-24T08:50:32.621Z,4.10
2023-02-24T08:52:07.220Z,4.10
2023-02-24T08:53:41.452Z,4.30
2023-02-24T08:55:14.597Z,4.10
2023-02-24T08:56:55.821Z,3.90
2023-02-24T08:58:31.228Z,3.90
2023-02-24T09:00:07.164Z,3.80
2023-02-24T09:02:03.693Z,3.60
2023-02-24T09:03:46.114Z,3.50
2023-02-24T09:05:19.293Z,3.40
2023-02-24T09:07:10.738Z,3.50
2023-02-24T09:08:46.525Z,3.60
2023-02-24T09:10:20.490Z,3.60
2023-02-24T09:11:57.132Z,3.50
2023-02-24T09:13:33.874Z,3.70
2023-02-24T09:15:08.590Z,3.80
2023-02-24T09:16:52.454Z,3.70
2023-02-24T09:18:30.381Z,3.80
2023-02-24T09:20:23.069Z,3.80
2023-02-24T09:22:21.259Z,3.70
2023-02-24T09:23:55.985Z,3.70
2023-02-24T09:25:41.414Z,3.70
2023-02-24T09:27:17.249Z,3.80
2023-02-24T09:28:54.952Z,4.10
2023-02-24T09:30:39.269Z,4.30
2023-02-24T09:32:14.827Z,4.40
2023-02-24T09:33:51.252Z,4.50
2023-02-24T09:35:31.014Z,4.40
2023-02-24T09:37:24.060Z,4.40
2023-02-24T09:39:14.513Z,4.40
2023-02-24T09:40:49.238Z,4.50
2023-02-24T09:42:33.506Z,4.60
2023-02-24T09:44:18.415Z,4.80
2023-02-24T09:46:01.822Z,5.00
2023-02-24T09:47:57.018Z,5.10
2023-02-24T09:49:46.438Z,5.20
2023-02-24T09:51:29.184Z,5.30
2023-02-24T09:53:13.982Z,5.50
2023-02-24T09:55:04.725Z,5.80
2023-02-24T09:56:42.967Z,6.10
2023-02-24T09:58:29.373Z,6.50
2023-02-24T10:00:33.431Z,6.80
2023-02-24T10:02:27.544Z,7.10
2023-02-24T10:04:20.688Z,7.10
2023-02-24T10:06:00.860Z,7.10
2023-02-24T10:07:39.447Z,7.30
2023-02-24T10:09:21.686Z,7.30
2023-02-24T10:11:07.171Z,7.30
2023-02-24T10:12:40.973Z,7.00
2023-02-24T10:14:19.532Z,6.90
2023-02-24T10:16:10.506Z,6.70
2023-02-24T10:17:47.338Z,6.90
2023-02-24T10:19:27.759Z,7.10
2023-02-24T10:21:10.816Z,7.30
2023-02-24T10:22:51.478Z,7.20
2023-02-24T10:24:34.207Z,7.10
2023-02-24T10:26:21.977Z,7.00
2023-02-24T10:28:04.834Z,7.40
2023-02-24T10:30:01.046Z,7.80
2023-02-24T10:31:43.597Z,7.70
2023-02-24T10:33:25.521Z,7.60
2023-02-24T10:34:59.186Z,7.80
2023-02-24T10:36:36.248Z,7.80
2023-02-24T10:38:09.413Z,7.70
2023-02-24T10:39:44.548Z,7.40
2023-02-24T10:41:19.021Z,7.40
2023-02-24T10:42:55.000Z,7.20
2023-02-24T10:44:36.463Z,7.10
2023-02-24T10:46:38.537Z,7.20
2023-02-24T10:48:40.226Z,7.20
2023-02-24T10:50:24.467Z,7.10
2023-02-24T10:51:58.635Z,7.20
2023-02-24T10:53:37.448Z,7.30
2023-02-24T10:55:28.331Z,7.30
2023-02-24T10:57:15.708Z,7.40
2023-02-24T10:59:17.212Z,7.40
2023-02-24T11:01:01.266Z,7.50
2023-02-24T11:02:57.568Z,7.60
2023-02-24T11:05:04.518Z,7.50
2023-02-24T11:06:52.493Z,7.40
2023-02-24T11:08:39.996Z,7.50
2023-02-24T11:10:18.908Z,7.40
2023-02-24T11:12:09.461Z,7.30
2023-02-24T11:14:08.187Z,7.10
2023-02-24T11:16:02.609Z,7.10
2023-02-24T11:17:37.726Z,7.20
2023-02-24T11:19:12.582Z,7.20
2023-02-24T11:20:51.169Z,7.20
2023-02-24T11:22:31.492Z,7.10
2023-02-24T11:24:17.968Z,7.30
2023-02-24T11:25:53.830Z,7.30
2023-02-24T11:27:28.853Z,7.10
2023-02-24T11:29:13.632Z,6.90
2023-02-24T11:30:56.346Z,6.60
2023-02-24T11:32:46.360Z,6.40
2023-02-24T11:34:29.088Z,6.50
2023-02-24T11:36:13.217Z,6.20
2023-02-24T11:37:51.299Z,6.20
2023-02-24T11:39:56.788Z,6.30
2023-02-24T11:41:37.072Z,6.60
2023-02-24T11:43:14.751Z,6.90
2023-02-24T11:44:55.719Z,7.00
2023-02-24T11:46:37.178Z,7.30
2023-02-24T11:48:16.034Z,7.60
2023-02-24T11:49:52.626Z,7.70
2023-02-24T11:51:31.369Z,7.90
2023-02-24T11:53:13.346Z,8.10
2023-02-24T11:54:51.313Z,8.30
2023-02-24T11:56:29.394Z,8.60
2023-02-24T11:58:07.715Z,8.70
2023-02-24T11:59:45.340Z,8.40
2023-02-24T12:01:24.422Z,8.70
2023-02-24T12:03:04.169Z,8.80
2023-02-24T12:04:41.550Z,8.40
2023-02-24T12:06:21.582Z,8.30
2023-02-24T12:07:59.130Z,8.70
2023-02-24T12:09:39.001Z,8.10
2023-02-24T12:11:19.386Z,7.80
2023-02-24T12:13:02.035Z,7.60
2023-02-24T12:14:38.659Z,7.70
2023-02-24T12:16:16.916Z,7.70
2023-02-24T12:17:58.073Z,8.10
2023-02-24T12:19:39.322Z,8.00
2023-02-24T12:21:17.821Z,8.10
2023-02-24T12:22:56.580Z,8.50
2023-02-24T12:24:31.053Z,8.50
2023-02-24T12:26:19.352Z,8.50
2023-02-24T12:28:05.420Z,8.20
2023-02-24T12:30:06.294Z,8.30
2023-02-24T12:31:53.275Z,8.30
2023-02-24T12:33:44.115Z,8.10
2023-02-24T12:35:24.701Z,8.20
2023-02-24T12:37:20.824Z,8.30
2023-02-24T12:39:00.421Z,8.20
2023-02-24T12:40:45.910Z,8.20
2023-02-24T12:42:26.417Z,8.00
2023-02-24T12:44:08.528Z,7.80
2023-02-24T12:45:52.932Z,7.80
2023-02-24T12:47:35.365Z,7.80
2023-02-24T12:49:34.563Z,7.80
2023-02-24T12:51:14.311Z,7.80
2023-02-24T12:52:58.380Z,7.40
2023-02-24T12:54:37.308Z,7.50
2023-02-24T12:56:20.181Z,6.90
2023-02-24T12:58:01.130Z,6.90
2023-02-24T12:59:38.918Z,7.00
2023-02-24T13:01:21.500Z,6.90
2023-02-24T13:03:02.596Z,6.70
2023-02-24T13:04:44.620Z,5.40
2023-02-24T13:06:26.566Z,6.80
2023-02-24T13:08:28.634Z,6.90
2023-02-24T13:10:13.848Z,7.00
2023-02-24T13:11:54.386Z,5.90
2023-02-24T13:13:32.604Z,7.40
2023-02-24T13:15:08.369Z,7.30
2023-02-24T13:16:41.681Z,7.20
2023-02-24T13:18:25.277Z,7.20
2023-02-24T13:19:58.409Z,7.30
2023-02-24T13:21:31.605Z,7.50
2023-02-24T13:23:21.191Z,7.60
2023-02-24T13:25:02.831Z,7.40
2023-02-24T13:26:35.938Z,8.50
2023-02-24T13:28:25.884Z,7.50
2023-02-24T13:30:01.222Z,7.30
2023-02-24T13:31:46.072Z,7.00
2023-02-24T13:33:25.564Z,7.00
2023-02-24T13:35:00.145Z,7.00
2023-02-24T13:36:35.642Z,6.90
2023-02-24T13:38:11.042Z,6.90
2023-02-24T13:39:44.292Z,6.90
2023-02-24T13:41:37.273Z,6.90
2023-02-24T13:43:26.945Z,6.90
2023-02-24T13:45:06.289Z,7.10
2023-02-24T13:46:56.337Z,7.00
2023-02-24T13:48:51.947Z,7.10
2023-02-24T13:50:27.959Z,7.20
2023-02-24T13:52:04.872Z,7.30
2023-02-24T13:53:57.700Z,7.40
2023-02-24T13:55:44.796Z,7.40
2023-02-24T13:57:55.390Z,7.40
2023-02-24T13:59:52.733Z,7.40
2023-02-24T14:01:30.563Z,7.30
2023-02-24T14:03:12.077Z,7.40
2023-02-24T14:04:51.278Z,7.30
2023-02-24T14:06:27.497Z,7.30
2023-02-24T14:08:02.229Z,7.20
2023-02-24T14:09:38.964Z,7.20
2023-02-24T14:11:16.852Z,7.30
2023-02-24T14:12:52.069Z,7.20
2023-02-24T14:14:26.216Z,7.10
2023-02-24T14:22:23.418Z,10.00
2023-02-24T14:23:58.645Z,7.30
2023-02-24T14:25:38.193Z,7.30
2023-02-24T14:27:23.124Z,7.30
2023-02-24T14:29:00.777Z,7.20
2023-02-24T14:30:36.483Z,7.30
2023-02-24T14:32:22.384Z,7.30
2023-02-24T14:33:59.225Z,7.30
2023-02-24T14:35:36.046Z,7.40
2023-02-24T14:37:16.280Z,7.40
2023-02-24T14:39:01.904Z,7.40
2023-02-24T14:40:35.213Z,7.40
2023-02-24T14:42:16.287Z,7.20
2023-02-24T14:43:49.569Z,7.20
2023-02-24T14:45:25.352Z,7.20
2023-02-24T14:47:00.094Z,7.20
2023-02-24T14:48:34.546Z,7.20
2023-02-24T14:50:08.232Z,7.10
2023-02-24T14:51:41.354Z,7.00
2023-02-24T14:53:19.464Z,7.00
2023-02-24T14:54:58.146Z,6.80
2023-02-24T14:56:33.425Z,6.80
2023-02-24T14:58:13.599Z,6.80
2023-02-24T14:59:50.204Z,6.80
2023-02-24T15:01:29.145Z,6.70
2023-02-24T15:03:07.781Z,6.70
2023-02-24T15:04:44.453Z,6.80
2023-02-24T15:06:23.846Z,6.80
2023-02-24T15:07:58.446Z,6.80
2023-02-24T15:09:37.441Z,6.80
2023-02-24T15:11:21.871Z,6.80
2023-02-24T15:13:00.722Z,6.90
2023-02-24T15:14:34.167Z,6.90
2023-02-24T15:16:13.881Z,6.90
2023-02-24T15:17:49.578Z,6.90
2023-02-24T15:19:27.421Z,6.90
2023-02-24T15:21:03.311Z,6.90
2023-02-24T15:22:39.406Z,6.90
2023-02-24T15:24:19.596Z,6.80
2023-02-24T15:25:52.812Z,6.90
2023-02-24T15:27:28.528Z,6.90
2023-02-24T15:29:03.279Z,6.90
2023-02-24T15:30:38.828Z,6.90
2023-02-24T15:32:17.762Z,6.90
2023-02-24T15:33:57.916Z,6.90
2023-02-24T15:35:33.238Z,6.90
2023-02-24T15:37:17.058Z,6.90
2023-02-24T15:38:53.986Z,6.80
2023-02-24T15:40:27.737Z,6.80
2023-02-24T15:42:09.041Z,6.80
2023-02-24T15:43:48.358Z,6.80
2023-02-24T15:45:33.888Z,6.80
2023-02-24T15:47:23.026Z,6.70
2023-02-24T15:48:58.254Z,6.70
2023-02-24T15:50:32.653Z,6.80
2023-02-24T15:52:10.059Z,6.70
2023-02-24T15:53:44.547Z,6.70
2023-02-24T15:55:19.715Z,6.70
2023-02-24T15:56:52.888Z,6.70
2023-02-24T15:58:26.111Z,6.70
2023-02-24T15:59:59.469Z,6.70
2023-02-24T16:01:32.906Z,6.70
2023-02-24T16:03:05.969Z,6.70
2023-02-24T16:04:39.107Z,6.60
2023-02-24T16:06:19.923Z,6.70
2023-02-24T16:07:54.729Z,6.60
2023-02-24T16:09:33.512Z,6.60
2023-02-24T16:11:06.876Z,6.60
2023-02-24T16:12:46.447Z,6.60
2023-02-24T16:14:19.644Z,6.60
2023-02-24T16:15:53.776Z,6.60
2023-02-24T16:17:32.671Z,6.60
2023-02-24T16:19:05.727Z,6.50
2023-02-24T16:20:39.749Z,6.50
2023-02-24T16:22:12.967Z,6.50
2023-02-24T16:23:46.464Z,6.50
2023-02-24T16:25:20.934Z,6.40
2023-02-24T16:26:54.073Z,6.20
2023-02-24T16:28:27.917Z,6.00
2023-02-24T16:30:01.624Z,5.90
2023-02-24T16:31:34.958Z,5.80
2023-02-24T16:33:12.443Z,5.70
2023-02-24T16:34:45.524Z,5.70
2023-02-24T16:36:21.206Z,5.60
2023-02-24T16:37:54.917Z,5.50
2023-02-24T16:39:29.407Z,5.50
2023-02-24T16:41:04.761Z,5.40
2023-02-24T16:42:38.017Z,5.40
2023-02-24T16:44:11.408Z,5.40
2023-02-24T16:45:46.071Z,5.50
2023-02-24T16:47:23.390Z,5.40
2023-02-24T16:48:56.561Z,5.40
2023-02-24T16:50:33.801Z,5.30
2023-02-24T16:52:06.920Z,5.30
2023-02-24T16:53:40.071Z,5.30
2023-02-24T16:55:14.837Z,5.30
2023-02-24T16:56:49.623Z,5.30
2023-02-24T16:58:23.372Z,5.30
2023-02-24T16:59:56.417Z,5.30
2023-02-24T17:01:29.599Z,5.20
2023-02-24T17:03:05.076Z,5.20
2023-02-24T17:04:38.440Z,5.20
2023-02-24T17:06:11.653Z,5.20
2023-02-24T17:07:44.000Z,5.20
2023-02-24T17:09:17.997Z,5.20
2023-02-24T17:10:52.409Z,5.20
2023-02-24T17:12:26.859Z,5.20
2023-02-24T17:14:00.011Z,5.20
2023-02-24T17:15:32.603Z,5.20
2023-02-24T17:17:05.775Z,5.10
2023-02-24T17:18:38.994Z,5.10
2023-02-24T17:20:14.419Z,5.10
2023-02-24T17:21:47.501Z,5.10
2023-02-24T17:23:20.793Z,5.10
2023-02-24T17:24:54.057Z,5.10
2023-02-24T17:26:27.293Z,5.00
2023-02-24T17:28:02.722Z,5.00
2023-02-24T17:29:37.790Z,5.00
2023-02-24T17:31:11.080Z,5.00
2023-02-24T17:32:44.369Z,5.00
2023-02-24T17:34:17.446Z,4.90
2023-02-24T17:35:50.615Z,4.90
2023-02-24T17:37:23.674Z,4.90
2023-02-24T17:38:57.230Z,4.90
2023-02-24T17:40:30.297Z,4.80
2023-02-24T17:42:03.422Z,4.80
2023-02-24T17:43:38.081Z,4.80
2023-02-24T17:45:12.071Z,4.80
2023-02-24T17:46:45.168Z,4.70
2023-02-24T17:48:18.282Z,4.70
2023-02-24T17:49:51.329Z,4.70
2023-02-24T17:51:24.618Z,4.70
2023-02-24T17:52:57.807Z,4.70
2023-02-24T17:54:31.052Z,4.70
2023-02-24T17:56:05.881Z,4.70
2023-02-24T17:57:39.805Z,4.60
2023-02-24T17:59:14.293Z,4.60
2023-02-24T18:00:47.339Z,4.60
2023-02-24T18:02:20.995Z,4.60
2023-02-24T18:03:55.506Z,4.60
2023-02-24T18:05:28.570Z,4.60
2023-02-24T18:07:01.661Z,4.60
2023-02-24T18:16:41.700Z,4.50
2023-02-24T18:18:14.852Z,4.60
2023-02-24T18:19:47.962Z,4.60
2023-02-24T18:21:21.513Z,4.60
2023-02-24T18:22:54.635Z,4.30
2023-02-24T18:24:27.765Z,4.30
2023-02-24T18:26:03.663Z,4.40
2023-02-24T18:27:36.909Z,4.30
2023-02-24T18:29:10.241Z,4.40
2023-02-24T18:30:44.699Z,4.30
2023-02-24T18:32:17.962Z,4.40
2023-02-24T18:33:51.571Z,4.40
2023-02-24T18:35:25.056Z,4.40
2023-02-24T18:36:58.259Z,4.40
2023-02-24T18:38:31.337Z,4.40
2023-02-24T18:40:04.669Z,4.30
2023-02-24T18:41:38.005Z,4.30
2023-02-24T18:43:11.065Z,4.30
2023-02-24T18:44:44.265Z,4.30
2023-02-24T18:46:19.268Z,4.30
2023-02-24T18:47:53.491Z,4.30
2023-02-24T18:49:26.608Z,4.20
2023-02-24T18:51:00.968Z,4.20
2023-02-24T18:52:34.570Z,4.20
2023-02-24T18:54:07.796Z,4.20
2023-02-24T18:55:40.855Z,4.20
2023-02-24T18:57:13.992Z,4.20
2023-02-24T18:58:48.102Z,4.20
2023-02-24T19:00:21.754Z,4.20
2023-02-24T19:01:57.251Z,4.20
2023-02-24T19:03:30.421Z,4.20
2023-02-24T19:05:03.682Z,4.20
2023-02-24T19:06:37.557Z,4.20
2023-02-24T19:08:10.629Z,4.10
2023-02-24T19:09:43.904Z,4.20
2023-02-24T19:11:18.684Z,4.10
2023-02-24T19:12:52.124Z,4.10
2023-02-24T19:14:25.190Z,4.10
2023-02-24T19:16:00.772Z,4.10
2023-02-24T19:17:35.349Z,4.00
2023-02-24T19:19:08.486Z,4.00
2023-02-24T19:20:43.738Z,4.00
2023-02-24T19:22:17.058Z,4.00
2023-02-24T19:23:50.536Z,4.00
2023-02-24T19:25:23.858Z,4.00
2023-02-24T19:26:57.818Z,3.90
2023-02-24T19:28:31.364Z,3.90
2023-02-24T19:30:04.878Z,3.90
2023-02-24T19:31:39.600Z,3.90
2023-02-24T19:33:14.274Z,3.90
2023-02-24T19:34:48.262Z,3.80
2023-02-24T19:36:21.889Z,3.90
2023-02-24T19:37:55.209Z,3.90
2023-02-24T19:39:28.294Z,3.90
2023-02-24T19:41:01.526Z,3.90
2023-02-24T19:42:34.577Z,3.90
2023-02-24T19:44:07.740Z,3.90
2023-02-24T19:45:42.610Z,3.90
2023-02-24T19:47:15.782Z,3.80
2023-02-24T19:48:50.486Z,3.80
2023-02-24T19:50:22.628Z,3.80
2023-02-24T19:51:55.950Z,3.80
2023-02-24T19:53:29.030Z,3.80
2023-02-24T19:55:02.108Z,3.80
2023-02-24T19:56:37.013Z,3.80
2023-02-24T19:58:10.072Z,3.70
2023-02-24T19:59:44.685Z,3.70
2023-02-24T20:01:17.757Z,3.70
2023-02-24T20:02:51.254Z,3.60
2023-02-24T20:04:26.000Z,3.60
2023-02-24T20:05:59.136Z,3.50
2023-02-24T20:07:32.186Z,3.60
2023-02-24T20:09:07.331Z,3.60
2023-02-24T20:10:40.451Z,3.50
2023-02-24T20:12:13.794Z,3.50
2023-02-24T20:13:47.335Z,3.60
2023-02-24T20:15:20.565Z,3.60
2023-02-24T20:16:53.744Z,3.60
2023-02-24T20:18:26.839Z,3.60
2023-02-24T20:20:00.269Z,3.60
2023-02-24T20:21:33.916Z,3.60
2023-02-24T20:23:06.950Z,3.70
2023-02-24T20:24:40.122Z,3.70
2023-02-24T20:26:16.212Z,3.70
2023-02-24T20:27:49.433Z,3.80
2023-02-24T20:29:23.395Z,3.90
2023-02-24T20:30:58.830Z,3.70
2023-02-24T20:32:32.049Z,3.80
2023-02-24T20:34:06.513Z,3.80
2023-02-24T20:35:41.946Z,3.80
2023-02-24T20:37:15.055Z,3.80
2023-02-24T20:38:48.586Z,3.80
2023-02-24T20:40:21.686Z,3.80
2023-02-24T20:41:55.039Z,3.80
2023-02-24T20:43:28.624Z,3.80
2023-02-24T20:45:01.729Z,3.80
2023-02-24T20:46:35.565Z,3.90
2023-02-24T20:48:08.826Z,3.90
2023-02-24T20:49:42.020Z,3.90
2023-02-24T20:51:16.567Z,3.90
2023-02-24T20:52:49.783Z,3.90
2023-02-24T20:54:23.911Z,3.90
2023-02-24T20:56:02.615Z,3.90
2023-02-24T20:57:35.799Z,3.90
2023-02-24T20:59:10.281Z,3.90
2023-02-24T21:00:45.004Z,4.00
2023-02-24T21:02:18.027Z,4.00
2023-02-24T21:03:52.150Z,4.00
2023-02-24T21:05:26.777Z,4.00
2023-02-24T21:07:01.241Z,4.00
2023-02-24T21:08:34.283Z,4.00
2023-02-24T21:10:08.088Z,4.10
2023-02-24T21:11:41.198Z,4.00
2023-02-24T21:13:14.307Z,4.10
2023-02-24T21:14:47.372Z,4.10
2023-02-24T21:16:22.226Z,4.00
2023-02-24T21:17:55.531Z,4.00
2023-02-24T21:19:28.603Z,4.10
2023-02-24T21:21:01.945Z,4.10
2023-02-24T21:22:36.485Z,4.10
2023-02-24T21:24:09.811Z,4.00
2023-02-24T21:25:42.871Z,4.10
2023-02-24T21:27:15.955Z,4.10
2023-02-24T21:28:49.531Z,4.10
2023-02-24T21:30:22.748Z,4.10
2023-02-24T21:31:56.698Z,4.10
2023-02-24T21:33:28.792Z,4.10
2023-02-24T21:35:02.412Z,4.10
2023-02-24T21:36:35.483Z,4.10
2023-02-24T21:38:10.154Z,4.10
2023-02-24T21:39:43.393Z,4.10
2023-02-24T21:41:19.292Z,4.10
2023-02-24T21:42:52.358Z,4.10
2023-02-24T21:44:25.902Z,4.10
2023-02-24T21:46:02.112Z,4.10
2023-02-24T21:47:35.246Z,4.10
2023-02-24T21:49:08.350Z,4.20
2023-02-24T21:50:40.620Z,4.10
2023-02-24T21:52:13.720Z,4.10
2023-02-24T21:53:49.697Z,4.20
2023-02-24T21:55:23.376Z,4.20
2023-02-24T21:56:56.518Z,4.20
2023-02-24T21:58:29.666Z,4.30
2023-02-24T22:00:05.711Z,4.30
2023-02-24T22:01:42.399Z,4.30
2023-02-24T22:03:15.510Z,4.30
2023-02-24T22:04:48.588Z,4.30
2023-02-24T22:06:21.937Z,4.40
2023-02-24T22:07:55.223Z,4.40
2023-02-24T22:09:30.818Z,4.30
2023-02-24T22:11:05.835Z,4.30
2023-02-24T22:12:39.104Z,4.40
2023-02-24T22:14:14.129Z,4.40
2023-02-24T22:15:47.461Z,4.40
2023-02-24T22:17:20.550Z,4.40
2023-02-24T22:18:55.267Z,4.40
2023-02-24T22:20:28.335Z,4.40
2023-02-24T22:22:01.601Z,4.40
2023-02-24T22:23:34.688Z,4.50
2023-02-24T22:25:11.370Z,4.50
2023-02-24T22:26:45.021Z,4.50
2023-02-24T22:28:18.332Z,4.50
2023-02-24T22:29:51.892Z,4.50
2023-02-24T22:31:27.277Z,4.40
2023-02-24T22:32:59.407Z,4.40
2023-02-24T22:34:32.565Z,4.40
2023-02-24T22:36:06.898Z,4.40